Time;durP1;ratioP1;P1;durP2;ratioP2;P2;SDS_P1;SDS_P2;PMS_P1;PMS_P2;Temp;Humidity;BMP_temperature;BMP_pressure;BME280_temperature;BME280_humidity;BME280_pressure;Samples;Min_cycle;Max_cycle;Signal;HPM_P1;HPM_P2
2023/04/29 00:00:12;;;;;;;25.67;15.57;;;10.90;99.90;;;;;;4213364;28;20223;-77
2023/04/29 00:02:16;;;;;;;27.13;15.27;;;10.90;99.90;;;;;;4212350;28;20238;-77
2023/04/29 00:04:18;;;;;;;31.63;16.30;;;10.80;99.90;;;;;;4210510;28;20308;-77
2023/04/29 00:06:20;;;;;;;30.70;17.53;;;10.90;99.90;;;;;;4207379;28;20224;-76
2023/04/29 00:08:22;;;;;;;30.27;17.83;;;10.80;99.90;;;;;;4224581;28;20681;-76
2023/04/29 00:10:24;;;;;;;31.80;16.87;;;10.80;99.90;;;;;;4211742;28;20648;-76
2023/04/29 00:12:26;;;;;;;31.60;17.37;;;10.80;99.90;;;;;;4214892;28;20270;-76
2023/04/29 00:14:28;;;;;;;33.30;16.77;;;10.80;99.90;;;;;;4214800;28;20223;-75
2023/04/29 00:16:30;;;;;;;29.93;16.67;;;10.80;99.90;;;;;;4212778;28;20578;-75
2023/04/29 00:18:34;;;;;;;30.73;16.33;;;10.80;99.90;;;;;;4211809;28;20227;-75
2023/04/29 00:20:36;;;;;;;33.10;17.33;;;10.80;99.90;;;;;;4202242;28;20213;-75
2023/04/29 00:22:38;;;;;;;26.27;14.67;;;10.80;99.90;;;;;;4210292;28;20259;-75
2023/04/29 00:24:40;;;;;;;29.13;16.13;;;10.80;99.90;;;;;;4212893;28;20329;-75
2023/04/29 00:26:42;;;;;;;30.17;16.87;;;10.80;99.90;;;;;;4214874;28;20315;-75
2023/04/29 00:28:44;;;;;;;30.97;16.40;;;10.80;99.90;;;;;;4204917;28;20240;-75
2023/04/29 00:30:48;;;;;;;28.67;15.17;;;10.80;99.90;;;;;;4209268;28;20216;-75
2023/04/29 00:32:50;;;;;;;28.47;16.07;;;10.80;99.90;;;;;;4209356;28;20217;-75
2023/04/29 00:34:54;;;;;;;29.53;15.93;;;10.90;99.90;;;;;;4218324;28;20226;-74
2023/04/29 00:36:56;;;;;;;28.63;15.57;;;10.90;99.90;;;;;;4220352;28;20258;-75
2023/04/29 00:38:58;;;;;;;34.17;15.97;;;10.90;99.90;;;;;;4216937;28;20212;-74
2023/04/29 00:41:00;;;;;;;28.13;15.23;;;10.90;99.90;;;;;;4226501;28;20212;-74
2023/04/29 00:43:02;;;;;;;30.57;16.47;;;10.90;99.90;;;;;;4224449;28;20251;-74
2023/04/29 00:45:05;;;;;;;27.80;15.83;;;10.90;99.90;;;;;;4222071;28;20252;-74
2023/04/29 00:47:10;;;;;;;27.30;14.20;;;10.90;99.90;;;;;;4215623;28;20215;-75
2023/04/29 00:49:13;;;;;;;28.07;14.73;;;10.90;99.90;;;;;;4219960;28;20220;-75
2023/04/29 00:51:19;;;;;;;25.93;15.00;;;10.90;99.90;;;;;;4219311;28;20312;-75
2023/04/29 00:53:22;;;;;;;24.40;13.30;;;11.00;99.90;;;;;;4222731;28;20686;-74
2023/04/29 00:55:25;;;;;;;30.33;15.13;;;10.90;99.90;;;;;;4210772;28;20220;-74
2023/04/29 00:57:27;;;;;;;27.87;14.60;;;10.90;99.90;;;;;;4201380;28;20218;-74
2023/04/29 00:59:31;;;;;;;25.70;14.23;;;11.00;99.90;;;;;;4215886;28;20333;-75
2023/04/29 01:01:33;;;;;;;22.03;12.57;;;11.00;99.90;;;;;;4212265;28;20228;-74
2023/04/29 01:03:35;;;;;;;26.20;14.60;;;11.00;99.90;;;;;;4214968;28;20355;-74
2023/04/29 01:05:37;;;;;;;27.10;14.57;;;11.00;99.90;;;;;;4206548;28;20219;-74
2023/04/29 01:07:48;;;;;;;28.20;13.73;;;11.00;99.90;;;;;;4209858;28;20221;-75
2023/04/29 01:09:59;;;;;;;26.07;14.67;;;11.00;99.90;;;;;;4210343;28;20213;-76
2023/04/29 01:12:11;;;;;;;25.40;13.97;;;11.10;99.90;;;;;;4211327;28;20228;-75
2023/04/29 01:14:13;;;;;;;26.23;14.43;;;11.00;99.90;;;;;;4210309;28;20218;-74
2023/04/29 01:16:23;;;;;;;26.07;13.77;;;11.10;99.90;;;;;;4209335;28;20215;-74
2023/04/29 01:18:29;;;;;;;29.00;15.17;;;11.00;99.90;;;;;;4210304;28;20224;-74
2023/04/29 01:20:32;;;;;;;29.60;14.57;;;11.00;99.90;;;;;;4207929;28;20221;-74
2023/04/29 01:22:34;;;;;;;28.17;15.13;;;11.00;99.90;;;;;;4209002;28;20233;-75
2023/04/29 01:24:37;;;;;;;31.20;16.03;;;11.10;99.90;;;;;;4212154;28;20781;-75
2023/04/29 01:26:39;;;;;;;26.33;13.93;;;11.10;99.90;;;;;;4208621;28;20330;-75
2023/04/29 01:28:49;;;;;;;29.70;15.67;;;11.10;99.90;;;;;;4207368;28;20216;-75
2023/04/29 01:31:00;;;;;;;29.27;14.77;;;11.10;99.90;;;;;;4210025;28;20204;-75
2023/04/29 01:33:11;;;;;;;30.60;14.80;;;11.10;99.90;;;;;;4208212;28;21050;-74
2023/04/29 01:35:30;;;;;;;29.03;14.93;;;11.00;99.90;;;;;;4208169;28;20319;-75
2023/04/29 01:37:41;;;;;;;31.27;15.23;;;11.10;99.90;;;;;;4207541;28;20228;-75
2023/04/29 01:39:52;;;;;;;28.20;14.77;;;11.10;99.90;;;;;;4210458;28;20215;-75
2023/04/29 01:42:13;;;;;;;32.50;16.00;;;11.10;99.90;;;;;;4207376;28;20322;-75
2023/04/29 01:44:20;;;;;;;28.60;15.30;;;11.00;99.90;;;;;;4211463;28;21036;-75
2023/04/29 01:46:22;;;;;;;30.47;14.70;;;11.10;99.90;;;;;;4208640;28;20602;-75
2023/04/29 01:48:24;;;;;;;31.57;16.67;;;11.10;99.90;;;;;;4209421;28;20669;-75
2023/04/29 01:50:26;;;;;;;31.27;16.33;;;11.00;99.90;;;;;;4208024;28;20328;-75
2023/04/29 01:52:28;;;;;;;36.60;16.43;;;11.00;99.90;;;;;;4209946;28;20327;-75
2023/04/29 01:54:30;;;;;;;27.47;14.77;;;11.10;99.90;;;;;;4211837;28;20674;-76
2023/04/29 01:56:34;;;;;;;33.77;16.20;;;11.00;99.90;;;;;;4203515;28;20268;-76
2023/04/29 01:58:36;;;;;;;34.93;17.00;;;11.00;99.90;;;;;;4210899;28;20658;-76
2023/04/29 02:00:38;;;;;;;34.87;17.33;;;11.10;99.90;;;;;;4206030;28;20700;-76
2023/04/29 02:02:39;;;;;;;34.77;17.27;;;11.10;99.90;;;;;;4212342;28;20238;-76
2023/04/29 02:04:41;;;;;;;33.57;17.67;;;11.10;99.90;;;;;;4210787;28;20686;-75
2023/04/29 02:06:43;;;;;;;32.67;16.00;;;11.10;99.90;;;;;;4206223;28;20215;-76
2023/04/29 02:08:45;;;;;;;34.20;17.13;;;11.10;99.90;;;;;;4207732;28;20721;-76
2023/04/29 02:10:57;;;;;;;32.43;16.77;;;11.10;99.90;;;;;;4201948;28;20212;-76
2023/04/29 02:13:01;;;;;;;31.60;16.13;;;11.00;99.90;;;;;;4203702;28;20303;-76
2023/04/29 02:15:03;;;;;;;34.27;17.67;;;11.10;99.90;;;;;;4208376;28;20211;-76
2023/04/29 02:17:05;;;;;;;36.43;17.63;;;11.10;99.90;;;;;;4209697;28;20247;-75
2023/04/29 02:19:07;;;;;;;31.50;17.20;;;11.10;99.90;;;;;;4208092;28;20214;-76
2023/04/29 02:21:09;;;;;;;36.93;17.93;;;11.10;99.90;;;;;;4208232;28;20577;-75
2023/04/29 02:23:11;;;;;;;33.70;17.63;;;11.10;99.90;;;;;;4204506;28;20220;-76
2023/04/29 02:25:13;;;;;;;41.10;19.63;;;11.10;99.90;;;;;;4207305;28;20215;-75
2023/04/29 02:27:15;;;;;;;36.70;17.83;;;11.10;99.90;;;;;;4206624;28;20311;-75
2023/04/29 02:29:18;;;;;;;38.23;18.37;;;11.10;99.90;;;;;;4207074;28;20249;-76
2023/04/29 02:31:20;;;;;;;39.73;18.30;;;11.10;99.90;;;;;;4206840;28;20236;-76
2023/04/29 02:33:22;;;;;;;36.17;17.93;;;11.10;99.90;;;;;;4206681;28;20200;-76
2023/04/29 02:35:24;;;;;;;38.00;17.67;;;11.10;99.90;;;;;;4206152;28;20948;-76
2023/04/29 02:37:26;;;;;;;33.90;17.37;;;11.10;99.90;;;;;;4206293;28;20269;-76
2023/04/29 02:39:28;;;;;;;44.07;20.17;;;11.10;99.90;;;;;;4205804;28;20230;-76
2023/04/29 02:41:30;;;;;;;35.93;18.30;;;11.10;99.90;;;;;;4210066;28;20405;-76
2023/04/29 02:43:32;;;;;;;39.87;19.47;;;11.10;99.90;;;;;;4207892;28;20228;-76
2023/04/29 02:45:35;;;;;;;35.07;17.77;;;11.10;99.90;;;;;;4205270;28;20961;-76
2023/04/29 02:47:37;;;;;;;37.80;18.17;;;11.10;99.90;;;;;;4208762;28;20247;-76
2023/04/29 02:49:39;;;;;;;41.83;19.63;;;11.10;99.90;;;;;;4208304;28;20258;-76
2023/04/29 02:51:43;;;;;;;38.93;18.03;;;11.10;99.90;;;;;;4204579;28;20258;-76
2023/04/29 02:53:45;;;;;;;38.60;18.33;;;11.10;99.90;;;;;;4204456;28;20247;-76
2023/04/29 02:55:47;;;;;;;34.80;17.53;;;11.10;99.90;;;;;;4210616;28;20307;-76
2023/04/29 02:57:49;;;;;;;39.97;18.80;;;11.10;99.90;;;;;;4210465;28;20211;-76
2023/04/29 02:59:51;;;;;;;40.73;19.87;;;11.10;99.90;;;;;;4210609;28;20244;-76
2023/04/29 03:01:54;;;;;;;36.27;17.87;;;11.10;99.90;;;;;;4208083;28;20352;-76
2023/04/29 03:03:57;;;;;;;32.27;16.97;;;11.10;99.90;;;;;;4204193;28;20227;-76
2023/04/29 03:05:58;;;;;;;34.80;17.87;;;11.10;99.90;;;;;;4209934;28;20216;-76
2023/04/29 03:08:00;;;;;;;31.83;16.70;;;11.10;99.90;;;;;;4207737;28;20298;-76
2023/04/29 03:10:02;;;;;;;38.90;19.03;;;11.10;99.90;;;;;;4207887;28;20207;-76
2023/04/29 03:12:05;;;;;;;34.40;17.53;;;11.10;99.90;;;;;;4209607;28;20232;-76
2023/04/29 03:14:06;;;;;;;38.80;18.40;;;11.10;99.90;;;;;;4207547;28;20231;-76
2023/04/29 03:16:09;;;;;;;34.77;18.13;;;11.10;99.90;;;;;;4210116;28;20243;-76
2023/04/29 03:18:12;;;;;;;35.43;17.73;;;11.10;99.90;;;;;;4207349;28;20247;-76
2023/04/29 03:20:14;;;;;;;39.93;19.20;;;11.10;99.90;;;;;;4206792;28;20211;-76
2023/04/29 03:22:16;;;;;;;45.83;20.47;;;11.10;99.90;;;;;;4212708;28;20259;-75
2023/04/29 03:24:18;;;;;;;41.60;19.60;;;11.10;99.90;;;;;;4210361;28;20667;-76
2023/04/29 03:26:21;;;;;;;34.20;18.37;;;11.10;99.90;;;;;;4209157;28;20209;-76
2023/04/29 03:28:23;;;;;;;44.73;20.40;;;11.10;99.90;;;;;;4210232;28;20211;-76
2023/04/29 03:30:25;;;;;;;53.27;22.87;;;11.00;99.90;;;;;;4214691;28;20277;-76
2023/04/29 03:32:27;;;;;;;45.80;21.93;;;11.10;99.90;;;;;;4217155;28;20726;-76
2023/04/29 03:34:31;;;;;;;46.27;20.47;;;11.00;99.90;;;;;;4214592;28;20209;-76
2023/04/29 03:36:33;;;;;;;36.80;19.37;;;11.00;99.90;;;;;;4209254;28;20211;-76
2023/04/29 03:38:35;;;;;;;41.27;20.53;;;11.00;99.90;;;;;;4206182;28;20221;-76
2023/04/29 03:40:37;;;;;;;42.07;20.60;;;11.00;99.90;;;;;;4207939;28;20208;-76
2023/04/29 03:42:39;;;;;;;48.70;22.10;;;11.00;99.90;;;;;;4209221;28;20801;-76
2023/04/29 03:44:40;;;;;;;70.50;22.13;;;11.00;99.90;;;;;;4207276;28;20314;-75
2023/04/29 03:46:42;;;;;;;50.07;21.27;;;11.00;99.90;;;;;;4210647;28;20280;-76
2023/04/29 03:48:44;;;;;;;57.77;23.90;;;11.00;99.90;;;;;;4211422;28;20231;-76
2023/04/29 03:50:48;;;;;;;50.77;22.00;;;11.00;99.90;;;;;;4208044;28;20239;-76
2023/04/29 03:52:50;;;;;;;53.23;23.70;;;11.00;99.90;;;;;;4208806;28;20710;-76
2023/04/29 03:54:53;;;;;;;48.37;20.93;;;11.00;99.90;;;;;;4205494;28;20630;-76
2023/04/29 03:56:54;;;;;;;51.03;22.93;;;11.00;99.90;;;;;;4211577;28;20292;-75
2023/04/29 03:58:56;;;;;;;47.23;22.33;;;11.00;99.90;;;;;;4209356;28;20311;-76
2023/04/29 04:00:58;;;;;;;50.60;21.90;;;11.00;99.90;;;;;;4212279;28;20311;-75
2023/04/29 04:03:00;;;;;;;49.27;21.53;;;11.00;99.90;;;;;;4208581;28;20226;-75
2023/04/29 04:05:02;;;;;;;46.77;21.13;;;11.00;99.90;;;;;;4212034;28;20675;-76
2023/04/29 04:07:05;;;;;;;49.47;22.00;;;11.00;99.90;;;;;;4207819;28;20240;-76
2023/04/29 04:09:07;;;;;;;46.03;21.83;;;11.00;99.90;;;;;;4210687;28;20307;-76
2023/04/29 04:11:09;;;;;;;54.00;23.03;;;11.00;99.90;;;;;;4210750;28;20216;-75
2023/04/29 04:13:11;;;;;;;57.20;22.90;;;11.00;99.90;;;;;;4207499;28;20208;-76
2023/04/29 04:15:14;;;;;;;52.13;21.40;;;11.00;99.90;;;;;;4207440;28;20884;-76
2023/04/29 04:17:15;;;;;;;60.60;22.97;;;11.00;99.90;;;;;;4203329;28;20208;-75
2023/04/29 04:19:18;;;;;;;53.97;21.50;;;11.00;99.90;;;;;;4209816;28;20224;-75
2023/04/29 04:21:20;;;;;;;48.87;21.80;;;11.00;99.90;;;;;;4212708;28;20235;-75
2023/04/29 04:23:23;;;;;;;50.50;21.87;;;11.00;99.90;;;;;;4213513;28;20215;-76
2023/04/29 04:25:25;;;;;;;50.73;21.00;;;11.10;99.90;;;;;;4208117;28;20328;-75
2023/04/29 04:27:27;;;;;;;45.00;19.40;;;11.10;99.90;;;;;;4207424;28;20209;-76
2023/04/29 04:29:29;;;;;;;44.53;19.87;;;11.10;99.90;;;;;;4209852;28;20222;-75
2023/04/29 04:31:30;;;;;;;48.67;22.17;;;11.10;99.90;;;;;;4208137;28;20259;-76
2023/04/29 04:33:33;;;;;;;60.67;24.17;;;11.10;99.90;;;;;;4212902;28;20731;-75
2023/04/29 04:35:35;;;;;;;50.00;21.40;;;11.10;99.90;;;;;;4210273;28;20208;-76
2023/04/29 04:37:37;;;;;;;61.37;23.60;;;11.10;99.90;;;;;;4211004;28;20247;-76
2023/04/29 04:39:40;;;;;;;51.13;21.23;;;11.20;99.90;;;;;;4215177;28;20303;-76
2023/04/29 04:41:42;;;;;;;51.07;22.27;;;11.10;99.90;;;;;;4215343;28;20858;-75
2023/04/29 04:43:44;;;;;;;61.23;24.20;;;11.10;99.90;;;;;;4209275;28;20205;-75
2023/04/29 04:45:46;;;;;;;55.40;22.37;;;11.20;99.90;;;;;;4206124;28;20330;-75
2023/04/29 04:47:48;;;;;;;50.13;21.47;;;11.20;99.90;;;;;;4212006;28;20251;-75
2023/04/29 04:49:51;;;;;;;49.33;20.70;;;11.20;99.90;;;;;;4211248;28;20340;-75
2023/04/29 04:51:53;;;;;;;55.50;22.07;;;11.20;99.90;;;;;;4211119;28;20685;-75
2023/04/29 04:53:55;;;;;;;50.20;21.23;;;11.20;99.90;;;;;;4206927;28;20237;-76
2023/04/29 04:56:02;;;;;;;45.30;20.67;;;11.20;99.90;;;;;;4211882;28;20307;-76
2023/04/29 04:58:04;;;;;;;52.83;21.93;;;11.20;99.90;;;;;;4214092;28;20303;-75
2023/04/29 05:00:07;;;;;;;45.80;20.47;;;11.20;99.90;;;;;;4212919;28;20890;-75
2023/04/29 05:02:09;;;;;;;47.87;20.73;;;11.30;99.90;;;;;;4209285;28;20738;-76
2023/04/29 05:04:11;;;;;;;45.00;19.33;;;11.30;99.90;;;;;;4213011;28;20270;-75
2023/04/29 05:06:13;;;;;;;48.87;20.13;;;11.30;99.90;;;;;;4210172;28;20304;-75
2023/04/29 05:08:15;;;;;;;44.47;18.50;;;11.30;99.90;;;;;;4207472;28;20208;-76
2023/04/29 05:10:17;;;;;;;45.23;19.30;;;11.30;99.90;;;;;;4211758;28;20714;-75
2023/04/29 05:12:20;;;;;;;45.80;19.37;;;11.30;99.90;;;;;;4212634;28;20241;-76
2023/04/29 05:14:22;;;;;;;39.40;17.43;;;11.30;99.90;;;;;;4208578;28;20220;-74
2023/04/29 05:16:24;;;;;;;38.17;18.07;;;11.30;99.90;;;;;;4212153;28;20247;-76
2023/04/29 05:18:26;;;;;;;43.27;17.57;;;11.30;99.90;;;;;;4208225;28;20207;-77
2023/04/29 05:20:28;;;;;;;40.63;16.13;;;11.30;99.90;;;;;;4211621;28;20757;-76
2023/04/29 05:22:30;;;;;;;31.33;14.13;;;11.30;99.90;;;;;;4211981;28;20299;-75
2023/04/29 05:24:32;;;;;;;31.37;12.73;;;11.30;99.90;;;;;;4208953;28;20216;-75
2023/04/29 05:26:34;;;;;;;35.87;12.33;;;11.30;99.90;;;;;;4209891;28;20300;-75
2023/04/29 05:28:37;;;;;;;29.63;13.27;;;11.40;99.90;;;;;;4211856;28;20208;-76
2023/04/29 05:30:39;;;;;;;29.40;12.47;;;11.30;99.90;;;;;;4205941;28;20698;-75
2023/04/29 05:32:41;;;;;;;30.10;12.73;;;11.40;99.90;;;;;;4205986;28;20260;-76
2023/04/29 05:34:43;;;;;;;29.87;13.57;;;11.40;99.90;;;;;;4209529;28;20303;-76
2023/04/29 05:36:45;;;;;;;27.70;12.30;;;11.40;99.90;;;;;;4206871;28;20209;-76
2023/04/29 05:38:47;;;;;;;30.03;12.33;;;11.40;99.90;;;;;;4207311;28;20233;-75
2023/04/29 05:40:51;;;;;;;25.83;11.67;;;11.50;99.90;;;;;;4205173;28;20927;-76
2023/04/29 05:42:53;;;;;;;27.57;12.30;;;11.50;99.90;;;;;;4201682;28;20232;-75
2023/04/29 05:44:59;;;;;;;23.13;11.10;;;11.50;99.90;;;;;;4213815;28;20252;-75
2023/04/29 05:47:00;;;;;;;27.13;11.73;;;11.60;99.90;;;;;;4210787;28;20563;-76
2023/04/29 05:49:02;;;;;;;28.90;12.73;;;11.60;99.90;;;;;;4210657;28;20316;-76
2023/04/29 05:51:05;;;;;;;28.80;12.90;;;11.60;99.90;;;;;;4210789;28;20240;-76
2023/04/29 05:53:06;;;;;;;27.90;13.10;;;11.70;99.90;;;;;;4208171;28;20228;-75
2023/04/29 05:55:09;;;;;;;32.13;13.30;;;11.70;99.90;;;;;;4203986;28;20240;-75
2023/04/29 05:57:11;;;;;;;27.63;12.17;;;11.70;99.90;;;;;;4210127;28;20285;-75
2023/04/29 05:59:13;;;;;;;30.87;13.80;;;11.70;99.90;;;;;;4209840;28;20304;-75
2023/04/29 06:01:17;;;;;;;28.30;13.40;;;11.70;99.90;;;;;;4208708;28;20296;-75
2023/04/29 06:03:19;;;;;;;39.30;16.00;;;11.80;99.90;;;;;;4208198;28;20209;-75
2023/04/29 06:05:21;;;;;;;34.63;16.17;;;11.80;99.90;;;;;;4209745;28;20233;-75
2023/04/29 06:07:23;;;;;;;37.03;15.63;;;11.80;99.90;;;;;;4206675;28;20237;-76
2023/04/29 06:09:25;;;;;;;32.27;14.53;;;11.80;99.90;;;;;;4207819;28;20229;-75
2023/04/29 06:11:27;;;;;;;26.40;12.90;;;11.80;99.90;;;;;;4212591;28;20228;-75
2023/04/29 06:13:30;;;;;;;28.97;13.63;;;11.90;99.90;;;;;;4207522;28;20209;-75
2023/04/29 06:15:32;;;;;;;30.20;13.60;;;11.90;99.90;;;;;;4213013;28;20900;-75
2023/04/29 06:17:35;;;;;;;28.17;12.93;;;11.90;99.90;;;;;;4208852;28;20213;-75
2023/04/29 06:19:39;;;;;;;30.83;13.23;;;12.00;99.90;;;;;;4209225;28;20303;-75
2023/04/29 06:21:41;;;;;;;26.37;12.50;;;12.00;99.90;;;;;;4209149;28;20257;-75
2023/04/29 06:23:43;;;;;;;32.93;13.83;;;12.00;99.90;;;;;;4205257;28;20278;-75
2023/04/29 06:25:44;;;;;;;30.93;14.00;;;12.00;99.90;;;;;;4210116;28;20251;-80
2023/04/29 06:27:47;;;;;;;25.13;12.27;;;12.00;99.90;;;;;;4215124;28;20334;-80
2023/04/29 06:29:49;;;;;;;26.23;12.93;;;12.00;99.90;;;;;;4212018;28;20723;-77
2023/04/29 06:31:51;;;;;;;29.07;12.90;;;12.10;99.90;;;;;;4203299;28;20260;-76
2023/04/29 06:33:55;;;;;;;30.90;13.80;;;12.10;99.90;;;;;;4210258;28;20202;-76
2023/04/29 06:35:57;;;;;;;28.97;13.53;;;12.10;99.90;;;;;;4209494;28;20208;-76
2023/04/29 06:37:59;;;;;;;25.43;12.33;;;12.00;99.90;;;;;;4204804;28;20284;-76
2023/04/29 06:40:01;;;;;;;26.93;13.07;;;12.00;99.90;;;;;;4207991;28;20279;-76
2023/04/29 06:42:03;;;;;;;21.90;11.77;;;11.90;99.90;;;;;;4208718;28;20276;-76
2023/04/29 06:44:05;;;;;;;25.50;12.20;;;11.90;99.90;;;;;;4213770;28;20228;-77
2023/04/29 06:46:07;;;;;;;25.93;13.03;;;11.80;99.90;;;;;;4209319;28;20227;-76
2023/04/29 06:48:09;;;;;;;23.87;11.57;;;11.80;99.90;;;;;;4209195;28;20212;-78
2023/04/29 06:50:12;;;;;;;25.17;11.83;;;11.80;99.90;;;;;;4211952;28;20223;-77
2023/04/29 06:52:14;;;;;;;26.13;12.33;;;11.80;99.90;;;;;;4212086;28;20248;-77
2023/04/29 06:54:16;;;;;;;22.57;10.73;;;11.80;99.90;;;;;;4211261;28;20210;-77
2023/04/29 06:56:19;;;;;;;21.10;10.70;;;11.80;99.90;;;;;;4205926;28;20206;-77
2023/04/29 06:58:21;;;;;;;22.17;11.47;;;11.80;99.90;;;;;;4210266;28;20219;-77
2023/04/29 07:00:23;;;;;;;19.07;10.00;;;11.80;99.90;;;;;;4208897;28;20229;-77
2023/04/29 07:02:25;;;;;;;21.83;10.30;;;11.70;99.90;;;;;;4211061;28;20315;-77
2023/04/29 07:04:26;;;;;;;19.43;10.03;;;11.80;99.90;;;;;;4206849;28;20649;-77
2023/04/29 07:06:30;;;;;;;24.00;10.67;;;11.70;99.90;;;;;;4206080;28;20256;-76
2023/04/29 07:08:32;;;;;;;20.60;9.97;;;11.80;99.90;;;;;;4205693;28;20219;-77
2023/04/29 07:10:34;;;;;;;17.87;9.83;;;11.70;99.90;;;;;;4208723;28;20211;-76
2023/04/29 07:12:37;;;;;;;21.97;10.27;;;11.70;99.90;;;;;;4208289;28;20297;-76
2023/04/29 07:14:39;;;;;;;18.17;9.30;;;11.70;99.90;;;;;;4208816;28;20204;-76
2023/04/29 07:16:41;;;;;;;17.50;9.50;;;11.70;99.90;;;;;;4207789;28;20341;-76
2023/04/29 07:18:43;;;;;;;20.87;9.77;;;11.70;99.90;;;;;;4208616;28;20210;-76
2023/04/29 07:20:46;;;;;;;17.70;9.63;;;11.70;99.90;;;;;;4207186;28;20205;-80
2023/04/29 07:22:50;;;;;;;18.33;9.17;;;11.70;99.90;;;;;;4208398;28;20258;-76
2023/04/29 07:24:53;;;;;;;20.80;9.67;;;11.70;99.90;;;;;;4208874;28;20274;-76
2023/04/29 07:26:56;;;;;;;18.10;8.90;;;11.70;99.90;;;;;;4207907;28;20282;-76
2023/04/29 07:28:58;;;;;;;18.33;9.20;;;11.70;99.90;;;;;;4211062;28;20216;-76
2023/04/29 07:30:59;;;;;;;16.73;8.50;;;11.70;99.90;;;;;;4207153;28;20660;-76
2023/04/29 07:33:03;;;;;;;16.53;8.93;;;11.70;99.90;;;;;;4202874;28;20217;-77
2023/04/29 07:35:05;;;;;;;18.30;9.57;;;11.70;99.90;;;;;;4208208;28;20686;-76
2023/04/29 07:37:10;;;;;;;15.00;7.87;;;11.70;99.90;;;;;;4212373;28;20217;-74
2023/04/29 07:39:14;;;;;;;17.83;8.63;;;11.70;99.90;;;;;;4201210;28;20258;-76
2023/04/29 07:41:16;;;;;;;17.80;9.00;;;11.70;99.90;;;;;;4204859;28;20209;-76
2023/04/29 07:43:18;;;;;;;16.47;8.90;;;11.60;99.90;;;;;;4208418;28;20333;-76
2023/04/29 07:45:20;;;;;;;18.40;9.10;;;11.70;99.90;;;;;;4208055;28;20215;-76
2023/04/29 07:47:22;;;;;;;20.30;8.53;;;11.70;99.90;;;;;;4209216;28;20240;-76
2023/04/29 07:49:24;;;;;;;18.37;8.83;;;11.70;99.90;;;;;;4206281;28;20240;-77
2023/04/29 07:51:32;;;;;;;17.93;9.63;;;11.70;99.90;;;;;;4205979;28;20686;-76
2023/04/29 07:53:34;;;;;;;23.90;10.90;;;11.70;99.90;;;;;;4209443;28;20609;-76
2023/04/29 07:55:38;;;;;;;18.67;9.60;;;11.80;99.90;;;;;;4214008;28;20255;-76
2023/04/29 07:57:40;;;;;;;20.53;11.50;;;11.80;99.90;;;;;;4213715;28;20240;-76
2023/04/29 07:59:42;;;;;;;21.13;11.43;;;11.80;99.90;;;;;;4209831;28;20218;-76
2023/04/29 08:01:44;;;;;;;20.30;11.37;;;11.80;99.90;;;;;;4211258;28;20232;-76
2023/04/29 08:03:46;;;;;;;19.03;10.67;;;11.80;99.90;;;;;;4212045;28;20325;-76
2023/04/29 08:05:50;;;;;;;19.97;10.97;;;11.80;99.90;;;;;;4204115;28;20343;-76
2023/04/29 08:07:52;;;;;;;20.23;11.20;;;11.80;99.90;;;;;;4208822;28;20217;-76
2023/04/29 08:09:54;;;;;;;19.33;11.17;;;11.80;99.90;;;;;;4209673;28;20291;-76
2023/04/29 08:12:00;;;;;;;21.70;11.33;;;11.90;99.90;;;;;;4208357;28;20229;-76
2023/04/29 08:14:02;;;;;;;23.83;12.60;;;11.90;99.90;;;;;;4208042;28;20225;-76
2023/04/29 08:16:04;;;;;;;26.03;13.73;;;11.90;99.90;;;;;;4209591;28;20239;-76
2023/04/29 08:18:06;;;;;;;24.50;13.47;;;11.90;99.90;;;;;;4212990;28;20631;-76
2023/04/29 08:20:09;;;;;;;28.60;15.10;;;11.80;99.90;;;;;;4212412;28;20216;-76
2023/04/29 08:22:12;;;;;;;28.77;14.47;;;11.80;99.90;;;;;;4209301;28;20239;-76
2023/04/29 08:24:14;;;;;;;25.33;14.43;;;11.80;99.90;;;;;;4207173;28;20589;-76
2023/04/29 08:26:17;;;;;;;27.67;14.33;;;11.70;99.90;;;;;;4208645;28;20594;-75
2023/04/29 08:28:20;;;;;;;29.83;15.10;;;11.70;99.90;;;;;;4210553;28;20211;-76
2023/04/29 08:30:22;;;;;;;28.73;14.57;;;11.70;99.90;;;;;;4213561;28;20577;-76
2023/04/29 08:32:24;;;;;;;27.87;14.43;;;11.70;99.90;;;;;;4214193;28;20315;-76
2023/04/29 08:34:26;;;;;;;28.47;14.47;;;11.70;99.90;;;;;;4210536;28;20210;-76
2023/04/29 08:36:28;;;;;;;27.93;14.80;;;11.70;99.90;;;;;;4209916;28;20270;-76
2023/04/29 08:38:31;;;;;;;27.23;14.43;;;11.80;99.90;;;;;;4207324;28;20206;-76
2023/04/29 08:40:35;;;;;;;24.10;13.30;;;11.80;99.90;;;;;;4208875;28;20315;-76
2023/04/29 08:42:38;;;;;;;24.20;12.87;;;11.90;99.90;;;;;;4210116;28;20260;-76
2023/04/29 08:44:42;;;;;;;22.90;12.33;;;11.90;99.90;;;;;;4212265;28;20581;-76
2023/04/29 08:46:45;;;;;;;19.63;11.60;;;12.00;99.90;;;;;;4206464;28;20226;-76
2023/04/29 08:48:47;;;;;;;20.27;11.00;;;12.10;99.90;;;;;;4214565;28;20930;-76
2023/04/29 08:50:49;;;;;;;17.30;10.60;;;12.10;99.90;;;;;;4209407;28;20843;-76
2023/04/29 08:52:51;;;;;;;21.80;11.67;;;12.00;99.90;;;;;;4213297;28;20318;-76
2023/04/29 08:54:53;;;;;;;22.13;12.57;;;11.90;99.90;;;;;;4210296;28;20621;-76
2023/04/29 08:56:56;;;;;;;19.53;11.57;;;11.90;99.90;;;;;;4208993;28;20226;-77
2023/04/29 08:58:59;;;;;;;20.17;11.33;;;11.90;99.90;;;;;;4208979;28;20295;-76
2023/04/29 09:01:02;;;;;;;22.23;12.30;;;11.80;99.90;;;;;;4205282;28;20248;-76
2023/04/29 09:03:13;;;;;;;17.00;10.40;;;11.80;99.90;;;;;;4209651;28;20220;-76
2023/04/29 09:05:15;;;;;;;15.57;10.53;;;11.70;99.90;;;;;;4203812;28;20208;-77
2023/04/29 09:07:18;;;;;;;17.60;10.43;;;11.70;99.90;;;;;;4212909;28;20236;-77
2023/04/29 09:09:20;;;;;;;16.37;9.47;;;11.80;99.90;;;;;;4210783;28;20296;-77
2023/04/29 09:11:23;;;;;;;17.53;9.77;;;11.70;99.90;;;;;;4209372;28;20313;-77
2023/04/29 09:13:26;;;;;;;17.63;10.07;;;11.80;99.90;;;;;;4207407;28;20208;-75
2023/04/29 09:15:28;;;;;;;18.27;10.83;;;11.90;99.90;;;;;;4207891;28;20304;-76
2023/04/29 09:17:43;;;;;;;17.33;9.60;;;11.80;99.90;;;;;;4208510;28;20255;-76
2023/04/29 09:19:45;;;;;;;14.97;9.53;;;11.80;99.90;;;;;;4210222;28;20240;-76
2023/04/29 09:21:55;;;;;;;18.93;10.83;;;11.80;99.90;;;;;;4215543;28;20311;-76
2023/04/29 09:23:58;;;;;;;17.87;10.30;;;11.80;99.90;;;;;;4209729;28;21103;-76
2023/04/29 09:26:00;;;;;;;18.80;11.07;;;11.80;99.90;;;;;;4206509;28;20215;-76
2023/04/29 09:28:15;;;;;;;17.60;10.47;;;11.80;99.90;;;;;;4213572;28;20731;-76
2023/04/29 09:30:18;;;;;;;18.87;11.50;;;11.80;99.90;;;;;;4209324;28;20206;-76
2023/04/29 09:32:20;;;;;;;17.50;10.63;;;11.70;99.90;;;;;;4203213;28;20260;-76
2023/04/29 09:34:34;;;;;;;23.17;11.87;;;11.70;99.90;;;;;;4209446;28;20247;-76
2023/04/29 09:36:38;;;;;;;20.20;11.67;;;11.70;99.90;;;;;;4208756;28;20717;-76
2023/04/29 09:38:54;;;;;;;18.63;11.03;;;11.70;99.90;;;;;;4215854;28;20238;-76
2023/04/29 09:40:56;;;;;;;20.90;11.50;;;11.80;99.90;;;;;;4206625;28;20206;-76
2023/04/29 09:42:58;;;;;;;17.57;10.53;;;11.80;99.90;;;;;;4212349;28;20241;-76
2023/04/29 09:45:00;;;;;;;18.27;10.53;;;11.90;99.90;;;;;;4209578;28;20205;-76
2023/04/29 09:47:04;;;;;;;15.37;9.37;;;12.00;99.90;;;;;;4208118;28;20229;-76
2023/04/29 09:49:23;;;;;;;19.57;11.33;;;12.10;99.90;;;;;;4205757;28;20306;-76
2023/04/29 09:51:27;;;;;;;15.37;9.63;;;12.00;99.90;;;;;;4204892;28;20352;-76
2023/04/29 09:53:30;;;;;;;13.03;8.80;;;12.00;99.90;;;;;;4214247;28;20211;-75
2023/04/29 09:55:32;;;;;;;12.77;7.97;;;12.00;99.90;;;;;;4210660;28;20304;-76
2023/04/29 09:57:41;;;;;;;11.20;7.37;;;12.00;99.90;;;;;;4201317;28;20236;-76
2023/04/29 09:59:43;;;;;;;12.57;7.70;;;12.00;99.90;;;;;;4208575;28;20739;-76
2023/04/29 10:01:46;;;;;;;12.60;7.43;;;11.90;99.90;;;;;;4209789;28;20319;-76
2023/04/29 10:03:50;;;;;;;12.67;7.87;;;11.90;99.90;;;;;;4211866;28;20305;-76
2023/04/29 10:05:52;;;;;;;11.70;7.50;;;11.90;99.90;;;;;;4207072;28;20695;-76
2023/04/29 10:07:57;;;;;;;11.53;7.10;;;11.90;99.90;;;;;;4203740;28;20694;-76
2023/04/29 10:09:59;;;;;;;12.77;8.03;;;11.90;99.90;;;;;;4206349;28;20771;-76
2023/04/29 10:12:02;;;;;;;11.83;7.60;;;11.90;99.90;;;;;;4209554;28;20311;-76
2023/04/29 10:14:06;;;;;;;12.70;7.97;;;11.90;99.90;;;;;;4210746;28;20591;-75
2023/04/29 10:16:21;;;;;;;12.03;7.97;;;11.80;99.90;;;;;;4208019;28;20296;-76
2023/04/29 10:18:30;;;;;;;9.87;6.80;;;11.80;99.90;;;;;;4208360;28;20698;-76
2023/04/29 10:20:33;;;;;;;12.57;6.53;;;11.70;99.90;;;;;;4209410;28;20215;-76
2023/04/29 10:22:45;;;;;;;8.83;6.27;;;11.70;99.90;;;;;;4206379;28;20229;-76
2023/04/29 10:24:49;;;;;;;9.50;6.40;;;11.70;99.90;;;;;;4206361;28;20209;-76